sensor_id;sensor_type;location;lat;lon;timestamp;temperature;humidity
6206;DHT22;3136;48.788;9.772;2023-08-07T00:01:45;11.40;1.00
6206;DHT22;3136;48.788;9.772;2023-08-07T00:04:11;11.30;1.00
6206;DHT22;3136;48.788;9.772;2023-08-07T00:06:37;11.30;1.00
6206;DHT22;3136;48.788;9.772;2023-08-07T00:09:02;11.30;1.00
6206;DHT22;3136;48.788;9.772;2023-08-07T00:11:28;11.30;1.00
6206;DHT22;3136;48.788;9.772;2023-08-07T00:13:54;11.30;1.00
6206;DHT22;3136;48.788;9.772;2023-08-07T00:16:19;11.30;1.00
6206;DHT22;3136;48.788;9.772;2023-08-07T00:18:45;11.30;1.00
6206;DHT22;3136;48.788;9.772;2023-08-07T00:21:11;11.30;1.00
6206;DHT22;3136;48.788;9.772;2023-08-07T00:23:37;11.30;1.00
6206;DHT22;3136;48.788;9.772;2023-08-07T00:26:02;11.30;1.00
6206;DHT22;3136;48.788;9.772;2023-08-07T00:28:28;11.30;1.00
6206;DHT22;3136;48.788;9.772;2023-08-07T00:30:55;11.30;1.00
6206;DHT22;3136;48.788;9.772;2023-08-07T00:33:20;11.30;1.00
6206;DHT22;3136;48.788;9.772;2023-08-07T00:35:46;11.20;1.00
6206;DHT22;3136;48.788;9.772;2023-08-07T00:38:12;11.20;1.00
6206;DHT22;3136;48.788;9.772;2023-08-07T00:40:38;11.30;1.00
6206;DHT22;3136;48.788;9.772;2023-08-07T00:43:04;11.40;1.00
6206;DHT22;3136;48.788;9.772;2023-08-07T00:45:35;11.30;1.00
6206;DHT22;3136;48.788;9.772;2023-08-07T00:48:02;11.30;1.00
6206;DHT22;3136;48.788;9.772;2023-08-07T00:50:28;11.20;1.00
6206;DHT22;3136;48.788;9.772;2023-08-07T00:52:54;11.20;1.00
6206;DHT22;3136;48.788;9.772;2023-08-07T00:55:20;11.20;1.00
6206;DHT22;3136;48.788;9.772;2023-08-07T00:57:46;11.20;1.00
6206;DHT22;3136;48.788;9.772;2023-08-07T01:00:13;11.20;1.00
6206;DHT22;3136;48.788;9.772;2023-08-07T01:02:39;11.20;1.00
6206;DHT22;3136;48.788;9.772;2023-08-07T01:05:04;11.30;1.00
6206;DHT22;3136;48.788;9.772;2023-08-07T01:07:30;11.30;1.00
6206;DHT22;3136;48.788;9.772;2023-08-07T01:09:56;11.20;1.00
6206;DHT22;3136;48.788;9.772;2023-08-07T01:12:30;11.20;1.00
6206;DHT22;3136;48.788;9.772;2023-08-07T01:15:12;11.10;1.00
6206;DHT22;3136;48.788;9.772;2023-08-07T01:17:42;11.10;1.00
6206;DHT22;3136;48.788;9.772;2023-08-07T01:20:09;11.10;1.00
6206;DHT22;3136;48.788;9.772;2023-08-07T01:22:34;11.10;1.00
6206;DHT22;3136;48.788;9.772;2023-08-07T01:25:00;11.10;1.00
6206;DHT22;3136;48.788;9.772;2023-08-07T01:27:53;11.10;1.00
6206;DHT22;3136;48.788;9.772;2023-08-07T01:30:35;11.10;1.00
6206;DHT22;3136;48.788;9.772;2023-08-07T01:33:09;11.10;1.00
6206;DHT22;3136;48.788;9.772;2023-08-07T01:35:40;11.10;1.00
6206;DHT22;3136;48.788;9.772;2023-08-07T01:38:07;11.10;1.00
6206;DHT22;3136;48.788;9.772;2023-08-07T01:40:34;11.10;1.00
6206;DHT22;3136;48.788;9.772;2023-08-07T01:43:00;11.10;1.00
6206;DHT22;3136;48.788;9.772;2023-08-07T01:45:27;11.10;1.00
6206;DHT22;3136;48.788;9.772;2023-08-07T01:47:54;11.10;1.00
6206;DHT22;3136;48.788;9.772;2023-08-07T01:50:23;11.00;1.00
6206;DHT22;3136;48.788;9.772;2023-08-07T01:52:50;11.00;1.00
6206;DHT22;3136;48.788;9.772;2023-08-07T01:55:17;11.00;1.00
6206;DHT22;3136;48.788;9.772;2023-08-07T01:57:43;11.00;1.00
6206;DHT22;3136;48.788;9.772;2023-08-07T02:00:09;11.00;1.00
6206;DHT22;3136;48.788;9.772;2023-08-07T02:02:35;10.90;1.00
6206;DHT22;3136;48.788;9.772;2023-08-07T02:05:01;11.00;1.00
6206;DHT22;3136;48.788;9.772;2023-08-07T02:07:26;11.00;1.00
6206;DHT22;3136;48.788;9.772;2023-08-07T02:09:52;11.00;1.00
6206;DHT22;3136;48.788;9.772;2023-08-07T02:12:18;11.00;1.00
6206;DHT22;3136;48.788;9.772;2023-08-07T02:14:43;11.00;1.00
6206;DHT22;3136;48.788;9.772;2023-08-07T02:17:09;11.00;1.00
6206;DHT22;3136;48.788;9.772;2023-08-07T02:19:34;10.90;1.00
6206;DHT22;3136;48.788;9.772;2023-08-07T02:22:00;11.00;1.00
6206;DHT22;3136;48.788;9.772;2023-08-07T02:24:26;11.00;1.00
6206;DHT22;3136;48.788;9.772;2023-08-07T02:26:51;11.00;1.00
6206;DHT22;3136;48.788;9.772;2023-08-07T02:29:17;11.00;1.00
6206;DHT22;3136;48.788;9.772;2023-08-07T02:31:42;10.90;1.00
6206;DHT22;3136;48.788;9.772;2023-08-07T02:34:08;10.90;1.00
6206;DHT22;3136;48.788;9.772;2023-08-07T02:36:33;10.90;1.00
6206;DHT22;3136;48.788;9.772;2023-08-07T02:38:59;11.00;1.00
6206;DHT22;3136;48.788;9.772;2023-08-07T02:41:24;11.00;1.00
6206;DHT22;3136;48.788;9.772;2023-08-07T02:43:50;10.90;1.00
6206;DHT22;3136;48.788;9.772;2023-08-07T02:46:15;10.90;1.00
6206;DHT22;3136;48.788;9.772;2023-08-07T02:48:43;10.90;1.00
6206;DHT22;3136;48.788;9.772;2023-08-07T02:51:09;10.90;1.00
6206;DHT22;3136;48.788;9.772;2023-08-07T02:53:34;10.90;1.00
6206;DHT22;3136;48.788;9.772;2023-08-07T02:56:00;11.00;1.00
6206;DHT22;3136;48.788;9.772;2023-08-07T02:58:26;11.00;1.00
6206;DHT22;3136;48.788;9.772;2023-08-07T03:00:51;11.00;1.00
6206;DHT22;3136;48.788;9.772;2023-08-07T03:03:17;11.00;1.00
6206;DHT22;3136;48.788;9.772;2023-08-07T03:05:50;11.00;1.00
6206;DHT22;3136;48.788;9.772;2023-08-07T03:08:16;11.20;1.00
6206;DHT22;3136;48.788;9.772;2023-08-07T03:10:41;11.00;1.00
6206;DHT22;3136;48.788;9.772;2023-08-07T03:13:07;10.90;99.90
6206;DHT22;3136;48.788;9.772;2023-08-07T03:15:32;10.90;99.90
6206;DHT22;3136;48.788;9.772;2023-08-07T03:17:58;10.90;99.90
6206;DHT22;3136;48.788;9.772;2023-08-07T03:20:23;10.90;99.90
6206;DHT22;3136;48.788;9.772;2023-08-07T03:22:49;10.80;99.90
6206;DHT22;3136;48.788;9.772;2023-08-07T03:25:14;10.80;99.90
6206;DHT22;3136;48.788;9.772;2023-08-07T03:27:40;10.80;99.90
6206;DHT22;3136;48.788;9.772;2023-08-07T03:30:06;10.80;99.90
6206;DHT22;3136;48.788;9.772;2023-08-07T03:32:32;10.80;99.90
6206;DHT22;3136;48.788;9.772;2023-08-07T03:34:57;10.80;99.90
6206;DHT22;3136;48.788;9.772;2023-08-07T03:37:23;10.80;99.90
6206;DHT22;3136;48.788;9.772;2023-08-07T03:39:48;10.80;99.90
6206;DHT22;3136;48.788;9.772;2023-08-07T03:42:14;10.80;99.90
6206;DHT22;3136;48.788;9.772;2023-08-07T03:44:40;10.80;99.90
6206;DHT22;3136;48.788;9.772;2023-08-07T03:47:06;10.80;1.00
6206;DHT22;3136;48.788;9.772;2023-08-07T03:49:32;10.80;1.00
6206;DHT22;3136;48.788;9.772;2023-08-07T03:51:57;10.80;1.00
6206;DHT22;3136;48.788;9.772;2023-08-07T03:54:24;10.80;1.00
6206;DHT22;3136;48.788;9.772;2023-08-07T03:56:50;11.30;1.00
6206;DHT22;3136;48.788;9.772;2023-08-07T03:59:16;10.80;1.00
6206;DHT22;3136;48.788;9.772;2023-08-07T04:01:42;10.70;1.00
6206;DHT22;3136;48.788;9.772;2023-08-07T04:04:08;10.80;1.00
6206;DHT22;3136;48.788;9.772;2023-08-07T04:06:33;10.80;99.90
6206;DHT22;3136;48.788;9.772;2023-08-07T04:08:59;10.70;1.00
6206;DHT22;3136;48.788;9.772;2023-08-07T04:11:24;10.70;99.90
6206;DHT22;3136;48.788;9.772;2023-08-07T04:13:50;10.70;99.90
6206;DHT22;3136;48.788;9.772;2023-08-07T04:16:15;10.70;99.90
6206;DHT22;3136;48.788;9.772;2023-08-07T04:18:42;10.70;99.90
6206;DHT22;3136;48.788;9.772;2023-08-07T04:21:08;10.70;1.00
6206;DHT22;3136;48.788;9.772;2023-08-07T04:23:33;10.70;1.00
6206;DHT22;3136;48.788;9.772;2023-08-07T04:25:59;10.90;9.10
6206;DHT22;3136;48.788;9.772;2023-08-07T04:28:27;11.90;1.00
6206;DHT22;3136;48.788;9.772;2023-08-07T04:30:53;10.70;1.00
6206;DHT22;3136;48.788;9.772;2023-08-07T04:33:22;10.80;99.90
6206;DHT22;3136;48.788;9.772;2023-08-07T04:35:47;10.80;1.00
6206;DHT22;3136;48.788;9.772;2023-08-07T04:38:16;10.70;1.00
6206;DHT22;3136;48.788;9.772;2023-08-07T04:40:49;10.80;99.90
6206;DHT22;3136;48.788;9.772;2023-08-07T04:43:19;10.80;1.00
6206;DHT22;3136;48.788;9.772;2023-08-07T04:45:48;10.80;99.90
6206;DHT22;3136;48.788;9.772;2023-08-07T04:48:14;10.80;99.90
6206;DHT22;3136;48.788;9.772;2023-08-07T04:50:40;10.70;1.00
6206;DHT22;3136;48.788;9.772;2023-08-07T04:53:06;10.70;1.00
6206;DHT22;3136;48.788;9.772;2023-08-07T04:55:32;10.80;1.00
6206;DHT22;3136;48.788;9.772;2023-08-07T04:57:58;10.70;1.00
6206;DHT22;3136;48.788;9.772;2023-08-07T05:00:24;10.70;99.90
6206;DHT22;3136;48.788;9.772;2023-08-07T05:02:49;10.70;1.00
6206;DHT22;3136;48.788;9.772;2023-08-07T05:05:15;10.60;99.90
6206;DHT22;3136;48.788;9.772;2023-08-07T05:07:41;10.60;1.00
6206;DHT22;3136;48.788;9.772;2023-08-07T05:10:08;10.60;1.00
6206;DHT22;3136;48.788;9.772;2023-08-07T05:12:34;10.70;1.00
6206;DHT22;3136;48.788;9.772;2023-08-07T05:14:59;10.70;1.00
6206;DHT22;3136;48.788;9.772;2023-08-07T05:17:25;10.80;99.90
6206;DHT22;3136;48.788;9.772;2023-08-07T05:19:51;10.70;99.90
6206;DHT22;3136;48.788;9.772;2023-08-07T05:22:16;10.60;1.00
6206;DHT22;3136;48.788;9.772;2023-08-07T05:24:42;10.70;1.00
6206;DHT22;3136;48.788;9.772;2023-08-07T05:27:09;10.60;55.10
6206;DHT22;3136;48.788;9.772;2023-08-07T05:29:35;10.60;2.20
6206;DHT22;3136;48.788;9.772;2023-08-07T05:32:09;10.60;1.00
6206;DHT22;3136;48.788;9.772;2023-08-07T05:34:35;10.70;1.00
6206;DHT22;3136;48.788;9.772;2023-08-07T05:37:00;10.70;1.00
6206;DHT22;3136;48.788;9.772;2023-08-07T05:39:26;10.70;1.00
6206;DHT22;3136;48.788;9.772;2023-08-07T05:41:51;10.70;94.30
6206;DHT22;3136;48.788;9.772;2023-08-07T05:44:19;10.70;99.90
6206;DHT22;3136;48.788;9.772;2023-08-07T05:46:44;10.70;1.00
6206;DHT22;3136;48.788;9.772;2023-08-07T05:49:10;10.70;99.90
6206;DHT22;3136;48.788;9.772;2023-08-07T05:51:35;10.70;1.00
6206;DHT22;3136;48.788;9.772;2023-08-07T05:54:01;10.70;1.00
6206;DHT22;3136;48.788;9.772;2023-08-07T05:56:27;10.70;11.60
6206;DHT22;3136;48.788;9.772;2023-08-07T05:58:52;10.80;1.00
6206;DHT22;3136;48.788;9.772;2023-08-07T06:01:21;10.80;99.90
6206;DHT22;3136;48.788;9.772;2023-08-07T06:03:47;10.80;99.90
6206;DHT22;3136;48.788;9.772;2023-08-07T06:06:13;10.80;99.90
6206;DHT22;3136;48.788;9.772;2023-08-07T06:08:38;10.90;1.00
6206;DHT22;3136;48.788;9.772;2023-08-07T06:11:05;10.80;1.00
6206;DHT22;3136;48.788;9.772;2023-08-07T06:13:34;10.80;99.90
6206;DHT22;3136;48.788;9.772;2023-08-07T06:15:59;10.90;1.00
6206;DHT22;3136;48.788;9.772;2023-08-07T06:18:25;10.90;99.90
6206;DHT22;3136;48.788;9.772;2023-08-07T06:20:50;11.00;1.00
6206;DHT22;3136;48.788;9.772;2023-08-07T06:23:16;11.00;69.60
6206;DHT22;3136;48.788;9.772;2023-08-07T06:25:41;11.10;1.00
6206;DHT22;3136;48.788;9.772;2023-08-07T06:28:08;11.20;1.00
6206;DHT22;3136;48.788;9.772;2023-08-07T06:30:34;11.20;1.00
6206;DHT22;3136;48.788;9.772;2023-08-07T06:32:59;11.30;95.30
6206;DHT22;3136;48.788;9.772;2023-08-07T06:35:25;11.30;99.90
6206;DHT22;3136;48.788;9.772;2023-08-07T06:37:50;11.30;1.00
6206;DHT22;3136;48.788;9.772;2023-08-07T06:40:16;11.30;36.00
6206;DHT22;3136;48.788;9.772;2023-08-07T06:42:41;11.40;1.00
6206;DHT22;3136;48.788;9.772;2023-08-07T06:45:07;11.40;1.00
6206;DHT22;3136;48.788;9.772;2023-08-07T06:47:33;11.40;99.90
6206;DHT22;3136;48.788;9.772;2023-08-07T06:49:58;11.40;1.00
6206;DHT22;3136;48.788;9.772;2023-08-07T06:52:24;11.40;99.90
6206;DHT22;3136;48.788;9.772;2023-08-07T06:54:50;11.50;1.00
6206;DHT22;3136;48.788;9.772;2023-08-07T06:57:15;11.50;99.90
6206;DHT22;3136;48.788;9.772;2023-08-07T06:59:41;11.60;1.00
6206;DHT22;3136;48.788;9.772;2023-08-07T07:02:06;9.90;99.90
6206;DHT22;3136;48.788;9.772;2023-08-07T07:04:32;11.70;1.00
6206;DHT22;3136;48.788;9.772;2023-08-07T07:06:58;11.80;1.00
6206;DHT22;3136;48.788;9.772;2023-08-07T07:09:24;11.90;1.00
6206;DHT22;3136;48.788;9.772;2023-08-07T07:11:50;12.00;1.00
6206;DHT22;3136;48.788;9.772;2023-08-07T07:14:15;12.10;1.00
6206;DHT22;3136;48.788;9.772;2023-08-07T07:16:41;12.30;1.00
6206;DHT22;3136;48.788;9.772;2023-08-07T07:19:07;12.40;1.00
6206;DHT22;3136;48.788;9.772;2023-08-07T07:21:34;12.70;99.90
6206;DHT22;3136;48.788;9.772;2023-08-07T07:24:01;12.80;99.90
6206;DHT22;3136;48.788;9.772;2023-08-07T07:26:27;12.90;1.00
6206;DHT22;3136;48.788;9.772;2023-08-07T07:28:52;13.10;1.00
6206;DHT22;3136;48.788;9.772;2023-08-07T07:31:18;13.20;99.90
6206;DHT22;3136;48.788;9.772;2023-08-07T07:33:43;13.30;75.00
6206;DHT22;3136;48.788;9.772;2023-08-07T07:36:18;13.40;1.00
6206;DHT22;3136;48.788;9.772;2023-08-07T07:38:48;13.60;1.00
6206;DHT22;3136;48.788;9.772;2023-08-07T07:41:14;13.70;99.90
6206;DHT22;3136;48.788;9.772;2023-08-07T07:43:40;13.70;99.90
6206;DHT22;3136;48.788;9.772;2023-08-07T07:46:06;13.70;99.90
6206;DHT22;3136;48.788;9.772;2023-08-07T07:48:32;13.70;99.90
6206;DHT22;3136;48.788;9.772;2023-08-07T07:51:01;13.80;99.90
6206;DHT22;3136;48.788;9.772;2023-08-07T07:53:27;14.00;99.90
6206;DHT22;3136;48.788;9.772;2023-08-07T07:55:53;14.20;99.90
6206;DHT22;3136;48.788;9.772;2023-08-07T07:58:20;14.40;99.90
6206;DHT22;3136;48.788;9.772;2023-08-07T08:00:46;14.50;99.90
6206;DHT22;3136;48.788;9.772;2023-08-07T08:03:11;14.60;99.90
6206;DHT22;3136;48.788;9.772;2023-08-07T08:05:38;14.50;99.90
6206;DHT22;3136;48.788;9.772;2023-08-07T08:08:03;14.30;99.90
6206;DHT22;3136;48.788;9.772;2023-08-07T08:10:29;14.10;99.90
6206;DHT22;3136;48.788;9.772;2023-08-07T08:12:55;14.00;99.90
6206;DHT22;3136;48.788;9.772;2023-08-07T08:15:21;13.90;99.90
6206;DHT22;3136;48.788;9.772;2023-08-07T08:17:47;13.90;99.90
6206;DHT22;3136;48.788;9.772;2023-08-07T08:20:14;13.90;99.90
6206;DHT22;3136;48.788;9.772;2023-08-07T08:22:46;13.90;99.90
6206;DHT22;3136;48.788;9.772;2023-08-07T08:25:12;13.90;99.90
6206;DHT22;3136;48.788;9.772;2023-08-07T08:27:39;13.90;99.90
6206;DHT22;3136;48.788;9.772;2023-08-07T08:30:05;13.90;99.90
6206;DHT22;3136;48.788;9.772;2023-08-07T08:32:31;14.00;99.90
6206;DHT22;3136;48.788;9.772;2023-08-07T08:34:57;14.10;99.90
6206;DHT22;3136;48.788;9.772;2023-08-07T08:37:22;14.20;99.90
6206;DHT22;3136;48.788;9.772;2023-08-07T08:39:48;14.20;99.90
6206;DHT22;3136;48.788;9.772;2023-08-07T08:42:15;14.40;99.90
6206;DHT22;3136;48.788;9.772;2023-08-07T08:44:46;14.30;99.90
6206;DHT22;3136;48.788;9.772;2023-08-07T08:47:14;14.30;99.90
6206;DHT22;3136;48.788;9.772;2023-08-07T08:49:46;14.30;99.90
6206;DHT22;3136;48.788;9.772;2023-08-07T08:52:12;14.20;99.90
6206;DHT22;3136;48.788;9.772;2023-08-07T08:54:39;14.20;99.90
6206;DHT22;3136;48.788;9.772;2023-08-07T08:57:06;14.20;99.90
6206;DHT22;3136;48.788;9.772;2023-08-07T08:59:33;14.20;99.90
6206;DHT22;3136;48.788;9.772;2023-08-07T09:01:59;14.20;99.90
6206;DHT22;3136;48.788;9.772;2023-08-07T09:04:25;14.20;99.90
6206;DHT22;3136;48.788;9.772;2023-08-07T09:06:51;14.30;99.90
6206;DHT22;3136;48.788;9.772;2023-08-07T09:09:20;14.30;99.90
6206;DHT22;3136;48.788;9.772;2023-08-07T09:11:47;14.30;99.90
6206;DHT22;3136;48.788;9.772;2023-08-07T09:14:21;14.30;99.90
6206;DHT22;3136;48.788;9.772;2023-08-07T09:16:48;14.20;99.90
6206;DHT22;3136;48.788;9.772;2023-08-07T09:19:14;14.20;99.90
6206;DHT22;3136;48.788;9.772;2023-08-07T09:21:39;14.20;99.90
6206;DHT22;3136;48.788;9.772;2023-08-07T09:24:05;14.20;99.90
6206;DHT22;3136;48.788;9.772;2023-08-07T09:26:32;14.20;99.90
6206;DHT22;3136;48.788;9.772;2023-08-07T09:28:59;14.30;99.90
6206;DHT22;3136;48.788;9.772;2023-08-07T09:31:26;14.40;99.90
6206;DHT22;3136;48.788;9.772;2023-08-07T09:33:52;14.50;99.90
6206;DHT22;3136;48.788;9.772;2023-08-07T09:36:17;14.60;99.90
6206;DHT22;3136;48.788;9.772;2023-08-07T09:38:44;14.80;99.90
6206;DHT22;3136;48.788;9.772;2023-08-07T09:41:09;14.90;99.90
6206;DHT22;3136;48.788;9.772;2023-08-07T09:43:36;15.00;99.90
6206;DHT22;3136;48.788;9.772;2023-08-07T09:46:03;15.10;99.90
6206;DHT22;3136;48.788;9.772;2023-08-07T09:48:29;15.00;99.90
6206;DHT22;3136;48.788;9.772;2023-08-07T09:50:58;15.00;99.90
6206;DHT22;3136;48.788;9.772;2023-08-07T09:53:30;14.90;99.90
6206;DHT22;3136;48.788;9.772;2023-08-07T09:55:56;14.80;99.90
6206;DHT22;3136;48.788;9.772;2023-08-07T09:58:23;14.80;99.90
6206;DHT22;3136;48.788;9.772;2023-08-07T10:00:50;14.80;99.90
6206;DHT22;3136;48.788;9.772;2023-08-07T10:03:16;14.90;99.90
6206;DHT22;3136;48.788;9.772;2023-08-07T10:05:45;14.90;99.90
6206;DHT22;3136;48.788;9.772;2023-08-07T10:08:11;14.90;99.90
6206;DHT22;3136;48.788;9.772;2023-08-07T10:10:38;14.90;99.90
6206;DHT22;3136;48.788;9.772;2023-08-07T10:13:04;14.90;99.90
6206;DHT22;3136;48.788;9.772;2023-08-07T10:15:32;15.20;99.90
6206;DHT22;3136;48.788;9.772;2023-08-07T10:17:58;15.70;99.90
6206;DHT22;3136;48.788;9.772;2023-08-07T10:20:28;16.20;99.90
6206;DHT22;3136;48.788;9.772;2023-08-07T10:23:07;16.70;99.90
6206;DHT22;3136;48.788;9.772;2023-08-07T10:25:35;17.00;99.90
6206;DHT22;3136;48.788;9.772;2023-08-07T10:28:04;17.10;99.90
6206;DHT22;3136;48.788;9.772;2023-08-07T10:30:32;17.10;99.90
6206;DHT22;3136;48.788;9.772;2023-08-07T10:32:58;17.10;99.90
6206;DHT22;3136;48.788;9.772;2023-08-07T10:37:52;17.50;99.90
6206;DHT22;3136;48.788;9.772;2023-08-07T10:40:19;17.60;99.90
6206;DHT22;3136;48.788;9.772;2023-08-07T10:45:27;18.00;99.90
6206;DHT22;3136;48.788;9.772;2023-08-07T10:48:11;18.80;99.90
6206;DHT22;3136;48.788;9.772;2023-08-07T10:55:59;18.10;99.90
6206;DHT22;3136;48.788;9.772;2023-08-07T10:58:35;17.90;99.90
6206;DHT22;3136;48.788;9.772;2023-08-07T11:03:48;18.40;99.90
6206;DHT22;3136;48.788;9.772;2023-08-07T11:06:15;18.30;99.90
6206;DHT22;3136;48.788;9.772;2023-08-07T11:08:41;18.10;99.90
6206;DHT22;3136;48.788;9.772;2023-08-07T11:11:06;18.20;99.90
6206;DHT22;3136;48.788;9.772;2023-08-07T11:13:33;18.10;99.90
6206;DHT22;3136;48.788;9.772;2023-08-07T11:16:00;17.80;99.90
6206;DHT22;3136;48.788;9.772;2023-08-07T11:18:25;17.60;99.90
6206;DHT22;3136;48.788;9.772;2023-08-07T11:20:53;17.30;99.90
6206;DHT22;3136;48.788;9.772;2023-08-07T11:23:28;17.20;99.90
6206;DHT22;3136;48.788;9.772;2023-08-07T11:25:54;17.20;99.90
6206;DHT22;3136;48.788;9.772;2023-08-07T11:28:23;17.50;99.90
6206;DHT22;3136;48.788;9.772;2023-08-07T11:30:51;17.60;99.90
6206;DHT22;3136;48.788;9.772;2023-08-07T11:33:23;17.50;99.90
6206;DHT22;3136;48.788;9.772;2023-08-07T11:35:50;17.50;99.90
6206;DHT22;3136;48.788;9.772;2023-08-07T11:38:39;17.50;99.90
6206;DHT22;3136;48.788;9.772;2023-08-07T11:41:06;17.20;99.90
6206;DHT22;3136;48.788;9.772;2023-08-07T11:43:33;17.00;99.90
6206;DHT22;3136;48.788;9.772;2023-08-07T11:46:01;16.80;99.90
6206;DHT22;3136;48.788;9.772;2023-08-07T11:48:28;16.60;99.90
6206;DHT22;3136;48.788;9.772;2023-08-07T11:50:55;16.40;99.90
6206;DHT22;3136;48.788;9.772;2023-08-07T11:53:22;16.30;99.90
6206;DHT22;3136;48.788;9.772;2023-08-07T11:58:39;15.90;99.90
6206;DHT22;3136;48.788;9.772;2023-08-07T12:01:13;15.80;99.90
6206;DHT22;3136;48.788;9.772;2023-08-07T12:03:55;15.60;99.90
6206;DHT22;3136;48.788;9.772;2023-08-07T12:06:21;15.50;99.90
6206;DHT22;3136;48.788;9.772;2023-08-07T12:08:49;15.50;99.90
6206;DHT22;3136;48.788;9.772;2023-08-07T12:11:18;15.60;99.90
6206;DHT22;3136;48.788;9.772;2023-08-07T12:13:44;15.40;99.90
6206;DHT22;3136;48.788;9.772;2023-08-07T12:16:11;15.50;99.90
6206;DHT22;3136;48.788;9.772;2023-08-07T12:18:52;15.60;99.90
6206;DHT22;3136;48.788;9.772;2023-08-07T12:21:20;15.80;99.90
6206;DHT22;3136;48.788;9.772;2023-08-07T12:23:46;16.00;99.90
6206;DHT22;3136;48.788;9.772;2023-08-07T12:26:16;16.30;99.90
6206;DHT22;3136;48.788;9.772;2023-08-07T12:28:42;16.30;99.90
6206;DHT22;3136;48.788;9.772;2023-08-07T12:31:08;16.40;99.90
6206;DHT22;3136;48.788;9.772;2023-08-07T12:33:34;16.60;99.90
6206;DHT22;3136;48.788;9.772;2023-08-07T12:36:00;16.90;99.90
6206;DHT22;3136;48.788;9.772;2023-08-07T12:38:26;17.20;99.90
6206;DHT22;3136;48.788;9.772;2023-08-07T12:40:52;17.30;99.90
6206;DHT22;3136;48.788;9.772;2023-08-07T12:43:18;17.00;99.90
6206;DHT22;3136;48.788;9.772;2023-08-07T12:45:44;16.70;99.90
6206;DHT22;3136;48.788;9.772;2023-08-07T12:48:10;16.40;99.90
6206;DHT22;3136;48.788;9.772;2023-08-07T12:50:36;16.10;99.90
6206;DHT22;3136;48.788;9.772;2023-08-07T12:53:02;16.00;99.90
6206;DHT22;3136;48.788;9.772;2023-08-07T12:55:27;16.00;99.90
6206;DHT22;3136;48.788;9.772;2023-08-07T12:57:54;16.00;99.90
6206;DHT22;3136;48.788;9.772;2023-08-07T13:00:20;16.10;99.90
6206;DHT22;3136;48.788;9.772;2023-08-07T13:02:48;16.20;99.90
6206;DHT22;3136;48.788;9.772;2023-08-07T13:05:15;16.40;99.90
6206;DHT22;3136;48.788;9.772;2023-08-07T13:07:42;16.60;99.90
6206;DHT22;3136;48.788;9.772;2023-08-07T13:10:10;16.80;99.90
6206;DHT22;3136;48.788;9.772;2023-08-07T13:12:38;17.00;99.90
6206;DHT22;3136;48.788;9.772;2023-08-07T13:15:05;17.20;99.90
6206;DHT22;3136;48.788;9.772;2023-08-07T13:17:32;17.30;99.90
6206;DHT22;3136;48.788;9.772;2023-08-07T13:20:01;17.30;99.90
6206;DHT22;3136;48.788;9.772;2023-08-07T13:22:27;17.30;99.90
6206;DHT22;3136;48.788;9.772;2023-08-07T13:24:53;17.20;99.90
6206;DHT22;3136;48.788;9.772;2023-08-07T13:27:19;16.80;99.90
6206;DHT22;3136;48.788;9.772;2023-08-07T13:29:44;16.70;99.90
6206;DHT22;3136;48.788;9.772;2023-08-07T13:32:10;16.60;99.90
6206;DHT22;3136;48.788;9.772;2023-08-07T13:34:36;16.50;99.90
6206;DHT22;3136;48.788;9.772;2023-08-07T13:37:03;16.40;99.90
6206;DHT22;3136;48.788;9.772;2023-08-07T13:39:29;16.40;99.90
6206;DHT22;3136;48.788;9.772;2023-08-07T13:41:55;16.30;99.90
6206;DHT22;3136;48.788;9.772;2023-08-07T13:44:20;16.20;99.90
6206;DHT22;3136;48.788;9.772;2023-08-07T13:46:47;16.30;99.90
6206;DHT22;3136;48.788;9.772;2023-08-07T13:49:13;16.40;99.90
6206;DHT22;3136;48.788;9.772;2023-08-07T13:51:40;16.40;99.90
6206;DHT22;3136;48.788;9.772;2023-08-07T13:54:05;16.70;99.90
6206;DHT22;3136;48.788;9.772;2023-08-07T13:56:31;16.90;99.90
6206;DHT22;3136;48.788;9.772;2023-08-07T13:58:57;17.10;99.90
6206;DHT22;3136;48.788;9.772;2023-08-07T14:01:22;17.50;99.90
6206;DHT22;3136;48.788;9.772;2023-08-07T14:03:48;17.70;99.90
6206;DHT22;3136;48.788;9.772;2023-08-07T14:06:13;17.90;99.90
6206;DHT22;3136;48.788;9.772;2023-08-07T14:08:39;18.30;99.90
6206;DHT22;3136;48.788;9.772;2023-08-07T14:11:04;18.80;99.90
6206;DHT22;3136;48.788;9.772;2023-08-07T14:13:31;19.20;99.90
6206;DHT22;3136;48.788;9.772;2023-08-07T14:15:57;19.10;99.90
6206;DHT22;3136;48.788;9.772;2023-08-07T14:18:22;19.00;99.90
6206;DHT22;3136;48.788;9.772;2023-08-07T14:20:48;18.70;99.90
6206;DHT22;3136;48.788;9.772;2023-08-07T14:23:13;18.60;99.90
6206;DHT22;3136;48.788;9.772;2023-08-07T14:25:39;18.50;99.90
6206;DHT22;3136;48.788;9.772;2023-08-07T14:28:04;18.50;99.90
6206;DHT22;3136;48.788;9.772;2023-08-07T14:30:32;18.50;99.90
6206;DHT22;3136;48.788;9.772;2023-08-07T14:32:58;18.70;99.90
6206;DHT22;3136;48.788;9.772;2023-08-07T14:35:23;18.70;99.90
6206;DHT22;3136;48.788;9.772;2023-08-07T14:37:49;18.80;99.90
6206;DHT22;3136;48.788;9.772;2023-08-07T14:40:14;18.80;99.90
6206;DHT22;3136;48.788;9.772;2023-08-07T14:42:40;18.90;99.90
6206;DHT22;3136;48.788;9.772;2023-08-07T14:45:06;18.90;99.90
6206;DHT22;3136;48.788;9.772;2023-08-07T14:47:32;18.80;99.90
6206;DHT22;3136;48.788;9.772;2023-08-07T14:49:58;18.70;99.90
6206;DHT22;3136;48.788;9.772;2023-08-07T14:52:23;18.60;99.90
6206;DHT22;3136;48.788;9.772;2023-08-07T14:54:49;18.30;99.90
6206;DHT22;3136;48.788;9.772;2023-08-07T14:57:14;18.10;99.90
6206;DHT22;3136;48.788;9.772;2023-08-07T14:59:40;17.90;99.90
6206;DHT22;3136;48.788;9.772;2023-08-07T15:02:05;17.70;99.90
6206;DHT22;3136;48.788;9.772;2023-08-07T15:04:31;17.70;99.90
6206;DHT22;3136;48.788;9.772;2023-08-07T15:06:57;17.80;99.90
6206;DHT22;3136;48.788;9.772;2023-08-07T15:09:22;17.80;99.90
6206;DHT22;3136;48.788;9.772;2023-08-07T15:11:48;17.80;99.90
6206;DHT22;3136;48.788;9.772;2023-08-07T15:14:14;17.70;99.90
6206;DHT22;3136;48.788;9.772;2023-08-07T15:16:40;17.50;99.90
6206;DHT22;3136;48.788;9.772;2023-08-07T15:19:06;17.40;99.90
6206;DHT22;3136;48.788;9.772;2023-08-07T15:21:32;17.20;99.90
6206;DHT22;3136;48.788;9.772;2023-08-07T15:23:58;17.00;99.90
6206;DHT22;3136;48.788;9.772;2023-08-07T15:26:23;16.90;99.90
6206;DHT22;3136;48.788;9.772;2023-08-07T15:28:49;16.70;99.90
6206;DHT22;3136;48.788;9.772;2023-08-07T15:31:15;16.60;99.90
6206;DHT22;3136;48.788;9.772;2023-08-07T15:33:40;16.60;99.90
6206;DHT22;3136;48.788;9.772;2023-08-07T15:36:06;16.60;99.90
6206;DHT22;3136;48.788;9.772;2023-08-07T15:38:32;16.80;99.90
6206;DHT22;3136;48.788;9.772;2023-08-07T15:41:00;16.80;99.90
6206;DHT22;3136;48.788;9.772;2023-08-07T15:43:26;17.00;99.90
6206;DHT22;3136;48.788;9.772;2023-08-07T15:45:52;17.00;99.90
6206;DHT22;3136;48.788;9.772;2023-08-07T15:48:18;17.10;99.90
6206;DHT22;3136;48.788;9.772;2023-08-07T15:50:44;17.00;99.90
6206;DHT22;3136;48.788;9.772;2023-08-07T15:53:09;17.00;99.90
6206;DHT22;3136;48.788;9.772;2023-08-07T15:55:35;16.80;99.90
6206;DHT22;3136;48.788;9.772;2023-08-07T15:58:04;16.70;99.90
6206;DHT22;3136;48.788;9.772;2023-08-07T16:00:32;16.60;99.90
6206;DHT22;3136;48.788;9.772;2023-08-07T16:03:05;16.50;99.90
6206;DHT22;3136;48.788;9.772;2023-08-07T16:05:32;16.50;99.90
6206;DHT22;3136;48.788;9.772;2023-08-07T16:07:58;16.30;99.90
6206;DHT22;3136;48.788;9.772;2023-08-07T16:10:24;16.20;99.90
6206;DHT22;3136;48.788;9.772;2023-08-07T16:12:51;16.00;99.90
6206;DHT22;3136;48.788;9.772;2023-08-07T16:15:17;15.90;99.90
6206;DHT22;3136;48.788;9.772;2023-08-07T16:17:43;15.80;99.90
6206;DHT22;3136;48.788;9.772;2023-08-07T16:20:08;15.80;99.90